Tropical Cyclones
[Index]
Main Index Home Page Stock Weather Photos Extreme Storms Discussion Storm News and Storm Chasing Reports Tropical Cyclones / Hurricanes / Typhoons Weather Data and Links Wild Fires / Bushfires Weather Observation Techniques Weather Picture Catalogue Tornado Pictures and Reports Stock Video Footage and DVDs for sale
Season 1973-1974 Tropical Cyclone YVONNE Track Map
Season 1973-1974 Summaries: [BoM-AU] [JTWC-AU] [JTWC-SIO] [JTWC-SPAC] [JTWC-SH]
<<- Previous TC | JTWC 1973-1974 Season | Next TC ->>

click for intensity scale information  Lat/long Grid: Show Hide

 Date Labels: Show Hide

Joint Typhoon Warning Centre Cyclone Data

Name: YVONNE
Number: 859 / 7421

08 Feb 1974 12:00 UTC to 21 Feb 1974 00:00 UTC

    date/time    lat    long     hPa   cat  kts
1974-02-08 12   17.8   152.5                              
1974-02-08 18   18.1   151.6                              
1974-02-09 00   18.2   150.6                              
1974-02-09 06   18.2   149.6                              
1974-02-09 12   18.1   148.5                              
1974-02-09 18   17.8   147.4                              
1974-02-10 00   17.6   146.2                              
1974-02-10 06   17.5   145.0                              
1974-02-10 12   17.4   143.8                              
1974-02-10 18   17.3   142.9                              
1974-02-11 00   17.1   142.0                              
1974-02-11 06   16.8   141.1                              
1974-02-11 12   16.4   140.1                              
1974-02-11 18   15.7   139.3                              
1974-02-12 00   15.1   138.9                              
1974-02-12 06   15.1   139.0                              
1974-02-12 12   15.4   139.1                              
1974-02-12 18   15.9   139.2                              
1974-02-13 00   16.2   139.0                              
1974-02-13 06   15.9   138.3                              
1974-02-13 12   15.6   137.5                              
1974-02-13 18   15.3   136.9                              
1974-02-14 00   15.0   136.3                              
1974-02-14 06   15.3   135.8                              
1974-02-14 12   16.0   135.6                              
1974-02-14 18   16.6   135.8                              
1974-02-15 00   17.1   136.0                              
1974-02-15 06   16.8   135.8                              
1974-02-15 12   16.2   135.7                              
1974-02-15 18   16.2   136.3                              
1974-02-16 00   16.5   136.9                              
1974-02-16 06   17.4   136.9                              
1974-02-16 12   18.2   136.5                              
1974-02-16 18   18.6   135.5                              
1974-02-17 00   18.9   134.6                              
1974-02-17 06   19.1   134.2                              
1974-02-17 12   19.3   133.7                              
1974-02-17 18   19.5   133.1                              
1974-02-18 00   19.7   132.5                              
1974-02-18 06   19.9   131.7                              
1974-02-18 12   20.0   130.9                              
1974-02-18 18   20.0   130.0                              
1974-02-19 00   20.0   129.2                              
1974-02-19 06   20.0   128.7                              
1974-02-19 12   20.0   128.1                              
1974-02-19 18   20.0   127.6                              
1974-02-20 00   20.1   127.0                              
1974-02-20 06   20.4   125.4                              
1974-02-20 12   20.9   123.2                              
1974-02-20 18   21.4   121.6                              
1974-02-21 00   21.9   120.1                              
Winds are 1-min average.

Tropical cyclone tracks developed by Michael Bath using data from the Joint Typhoon Warning Centre Best Tracks and Google Maps.


[Australian Severe Weather index] [Copyright Notice] [Email Contacts] [Search This Site] [Privacy Policy]
Document: tropical_cyclone_yvonne.htm Updated: 18 September 2016